sensor_id;sensor_type;location;lat;lon;timestamp;pressure;altitude;pressure_sealevel;temperature;humidity
83691;BME280;73671;43.220;0.064;2023-12-14T00:01:27;98078.53;;;8.53;73.07
83691;BME280;73671;43.220;0.064;2023-12-14T00:03:53;98072.34;;;8.53;73.02
83691;BME280;73671;43.220;0.064;2023-12-14T00:06:18;98073.94;;;8.50;72.89
83691;BME280;73671;43.220;0.064;2023-12-14T00:08:43;98071.25;;;8.50;72.94
83691;BME280;73671;43.220;0.064;2023-12-14T00:11:10;98085.47;;;8.54;72.89
83691;BME280;73671;43.220;0.064;2023-12-14T00:13:37;98088.63;;;8.53;72.67
83691;BME280;73671;43.220;0.064;2023-12-14T00:16:03;98081.59;;;8.55;72.35
83691;BME280;73671;43.220;0.064;2023-12-14T00:18:28;98075.41;;;8.55;72.06
83691;BME280;73671;43.220;0.064;2023-12-14T00:20:54;98082.09;;;8.50;72.63
83691;BME280;73671;43.220;0.064;2023-12-14T00:23:20;98084.06;;;8.49;72.09
83691;BME280;73671;43.220;0.064;2023-12-14T00:25:45;98086.31;;;8.51;72.49
83691;BME280;73671;43.220;0.064;2023-12-14T00:28:11;98093.31;;;8.52;71.64
83691;BME280;73671;43.220;0.064;2023-12-14T00:30:36;98103.09;;;8.46;72.29
83691;BME280;73671;43.220;0.064;2023-12-14T00:33:02;98108.19;;;8.44;71.89
83691;BME280;73671;43.220;0.064;2023-12-14T00:35:27;98115.16;;;8.45;71.70
83691;BME280;73671;43.220;0.064;2023-12-14T00:37:53;98121.25;;;8.49;71.94
83691;BME280;73671;43.220;0.064;2023-12-14T00:40:18;98132.94;;;8.46;71.95
83691;BME280;73671;43.220;0.064;2023-12-14T00:42:44;98133.72;;;8.46;72.21
83691;BME280;73671;43.220;0.064;2023-12-14T00:45:09;98133.72;;;8.46;71.91
83691;BME280;73671;43.220;0.064;2023-12-14T00:47:35;98130.22;;;8.46;72.20
83691;BME280;73671;43.220;0.064;2023-12-14T00:50:00;98138.78;;;8.44;72.04
83691;BME280;73671;43.220;0.064;2023-12-14T00:52:26;98145.66;;;8.49;72.46
83691;BME280;73671;43.220;0.064;2023-12-14T00:54:51;98148.38;;;8.49;72.12
83691;BME280;73671;43.220;0.064;2023-12-14T00:57:17;98142.97;;;8.49;72.53
83691;BME280;73671;43.220;0.064;2023-12-14T00:59:42;98158.47;;;8.48;72.05
83691;BME280;73671;43.220;0.064;2023-12-14T01:02:08;98161.59;;;8.47;72.33
83691;BME280;73671;43.220;0.064;2023-12-14T01:04:33;98172.44;;;8.47;72.39
83691;BME280;73671;43.220;0.064;2023-12-14T01:06:58;98176.31;;;8.49;72.61
83691;BME280;73671;43.220;0.064;2023-12-14T01:09:24;98191.03;;;8.48;72.17
83691;BME280;73671;43.220;0.064;2023-12-14T01:11:50;98186.00;;;8.47;72.13
83691;BME280;73671;43.220;0.064;2023-12-14T01:14:15;98185.63;;;8.48;72.29
83691;BME280;73671;43.220;0.064;2023-12-14T01:16:41;98184.00;;;8.51;72.49
83691;BME280;73671;43.220;0.064;2023-12-14T01:19:06;98190.19;;;8.52;72.24
83691;BME280;73671;43.220;0.064;2023-12-14T01:21:32;98203.38;;;8.53;71.74
83691;BME280;73671;43.220;0.064;2023-12-14T01:23:58;98210.31;;;8.54;72.44
83691;BME280;73671;43.220;0.064;2023-12-14T01:26:23;98213.81;;;8.55;72.24
83691;BME280;73671;43.220;0.064;2023-12-14T01:28:49;98213.47;;;8.53;72.33
83691;BME280;73671;43.220;0.064;2023-12-14T01:31:14;98215.75;;;8.54;72.59
83691;BME280;73671;43.220;0.064;2023-12-14T01:33:39;98213.03;;;8.54;72.48
83691;BME280;73671;43.220;0.064;2023-12-14T01:36:05;98214.97;;;8.54;72.32
83691;BME280;73671;43.220;0.064;2023-12-14T01:38:30;98220.13;;;8.48;72.31
83691;BME280;73671;43.220;0.064;2023-12-14T01:40:56;98229.03;;;8.48;71.83
83691;BME280;73671;43.220;0.064;2023-12-14T01:43:21;98227.06;;;8.49;71.86
83691;BME280;73671;43.220;0.064;2023-12-14T01:45:47;98237.16;;;8.48;72.31
83691;BME280;73671;43.220;0.064;2023-12-14T01:48:12;98235.56;;;8.51;72.50
83691;BME280;73671;43.220;0.064;2023-12-14T01:50:38;98237.16;;;8.48;71.72
83691;BME280;73671;43.220;0.064;2023-12-14T01:53:03;98249.91;;;8.52;72.08
83691;BME280;73671;43.220;0.064;2023-12-14T01:55:29;98256.13;;;8.52;71.50
83691;BME280;73671;43.220;0.064;2023-12-14T01:57:54;98256.88;;;8.53;72.23
83691;BME280;73671;43.220;0.064;2023-12-14T02:01:10;98263.81;;;8.54;71.79
83691;BME280;73671;43.220;0.064;2023-12-14T02:03:15;98279.34;;;8.53;71.43
83691;BME280;73671;43.220;0.064;2023-12-14T02:05:41;98280.88;;;8.54;71.43
83691;BME280;73671;43.220;0.064;2023-12-14T02:08:06;98285.13;;;8.55;72.09
83691;BME280;73671;43.220;0.064;2023-12-14T02:10:32;98284.38;;;8.55;71.31
83691;BME280;73671;43.220;0.064;2023-12-14T02:12:58;98288.69;;;8.52;71.73
83691;BME280;73671;43.220;0.064;2023-12-14T02:15:23;98294.56;;;8.47;71.48
83691;BME280;73671;43.220;0.064;2023-12-14T02:17:48;98297.28;;;8.47;71.50
83691;BME280;73671;43.220;0.064;2023-12-14T02:20:14;98305.41;;;8.47;71.40
83691;BME280;73671;43.220;0.064;2023-12-14T02:22:52;98315.09;;;8.48;70.76
83691;BME280;73671;43.220;0.064;2023-12-14T02:25:19;98313.50;;;8.51;70.92
83691;BME280;73671;43.220;0.064;2023-12-14T02:27:44;98320.88;;;8.50;70.67
83691;BME280;73671;43.220;0.064;2023-12-14T02:30:11;98323.59;;;8.50;71.49
83691;BME280;73671;43.220;0.064;2023-12-14T02:32:38;98326.31;;;8.50;71.24
83691;BME280;73671;43.220;0.064;2023-12-14T02:35:05;98335.22;;;8.51;71.26
83691;BME280;73671;43.220;0.064;2023-12-14T02:37:31;98348.38;;;8.52;70.97
83691;BME280;73671;43.220;0.064;2023-12-14T02:39:57;98347.59;;;8.52;70.75
83691;BME280;73671;43.220;0.064;2023-12-14T02:42:22;98356.16;;;8.50;71.32
83691;BME280;73671;43.220;0.064;2023-12-14T02:44:49;98353.81;;;8.52;71.02
83691;BME280;73671;43.220;0.064;2023-12-14T02:47:15;98357.69;;;8.51;70.92
83691;BME280;73671;43.220;0.064;2023-12-14T02:49:41;98372.00;;;8.52;71.07
83691;BME280;73671;43.220;0.064;2023-12-14T02:52:06;98371.25;;;8.51;71.43
83691;BME280;73671;43.220;0.064;2023-12-14T02:54:31;98383.69;;;8.48;71.21
83691;BME280;73671;43.220;0.064;2023-12-14T02:56:57;98380.22;;;8.48;70.96
83691;BME280;73671;43.220;0.064;2023-12-14T02:59:22;98386.00;;;8.50;70.48
83691;BME280;73671;43.220;0.064;2023-12-14T03:01:48;98389.53;;;8.47;69.99
83691;BME280;73671;43.220;0.064;2023-12-14T03:04:13;98394.97;;;8.47;70.13
83691;BME280;73671;43.220;0.064;2023-12-14T03:06:38;98389.53;;;8.47;70.42
83691;BME280;73671;43.220;0.064;2023-12-14T03:09:04;98397.28;;;8.48;69.45
83691;BME280;73671;43.220;0.064;2023-12-14T03:11:30;98399.59;;;8.50;70.23
83691;BME280;73671;43.220;0.064;2023-12-14T03:13:56;98398.88;;;8.46;70.07
83691;BME280;73671;43.220;0.064;2023-12-14T03:16:21;98395.78;;;8.44;69.22
83691;BME280;73671;43.220;0.064;2023-12-14T03:18:47;98398.94;;;8.39;68.72
83691;BME280;73671;43.220;0.064;2023-12-14T03:21:17;98406.72;;;8.37;69.23
83691;BME280;73671;43.220;0.064;2023-12-14T03:23:43;98409.00;;;8.42;69.26
83691;BME280;73671;43.220;0.064;2023-12-14T03:26:08;98426.06;;;8.39;68.73
83691;BME280;73671;43.220;0.064;2023-12-14T03:28:34;98428.06;;;8.35;68.77
83691;BME280;73671;43.220;0.064;2023-12-14T03:30:59;98439.28;;;8.37;68.56
83691;BME280;73671;43.220;0.064;2023-12-14T03:33:25;98438.47;;;8.40;68.54
83691;BME280;73671;43.220;0.064;2023-12-14T03:35:50;98439.63;;;8.42;68.74
83691;BME280;73671;43.220;0.064;2023-12-14T03:38:16;98441.53;;;8.42;69.08
83691;BME280;73671;43.220;0.064;2023-12-14T03:40:41;98441.97;;;8.40;68.38
83691;BME280;73671;43.220;0.064;2023-12-14T03:43:07;98436.91;;;8.39;68.49
83691;BME280;73671;43.220;0.064;2023-12-14T03:45:32;98448.53;;;8.39;68.23
83691;BME280;73671;43.220;0.064;2023-12-14T03:47:58;98451.69;;;8.38;68.65
83691;BME280;73671;43.220;0.064;2023-12-14T03:50:23;98448.59;;;8.36;67.84
83691;BME280;73671;43.220;0.064;2023-12-14T03:52:49;98451.69;;;8.38;68.07
83691;BME280;73671;43.220;0.064;2023-12-14T03:55:14;98453.59;;;8.37;68.30
83691;BME280;73671;43.220;0.064;2023-12-14T03:57:40;98448.97;;;8.38;67.93
83691;BME280;73671;43.220;0.064;2023-12-14T04:00:16;98447.00;;;8.38;68.16
83691;BME280;73671;43.220;0.064;2023-12-14T04:02:42;98450.88;;;8.37;68.19
83691;BME280;73671;43.220;0.064;2023-12-14T04:05:09;98449.72;;;8.38;67.85
83691;BME280;73671;43.220;0.064;2023-12-14T04:07:38;98456.31;;;8.41;68.09
83691;BME280;73671;43.220;0.064;2023-12-14T04:10:10;98460.97;;;8.40;68.72
83691;BME280;73671;43.220;0.064;2023-12-14T04:12:36;98464.06;;;8.39;67.65
83691;BME280;73671;43.220;0.064;2023-12-14T04:15:03;98478.81;;;8.38;68.20
83691;BME280;73671;43.220;0.064;2023-12-14T04:17:28;98479.56;;;8.38;68.09
83691;BME280;73671;43.220;0.064;2023-12-14T04:19:55;98481.16;;;8.36;67.67
83691;BME280;73671;43.220;0.064;2023-12-14T04:22:20;98481.16;;;8.36;67.72
83691;BME280;73671;43.220;0.064;2023-12-14T04:24:46;98486.59;;;8.36;67.13
83691;BME280;73671;43.220;0.064;2023-12-14T04:27:11;98492.00;;;8.36;66.95
83691;BME280;73671;43.220;0.064;2023-12-14T04:29:37;98490.44;;;8.35;67.94
83691;BME280;73671;43.220;0.064;2023-12-14T04:32:02;98502.84;;;8.36;67.36
83691;BME280;73671;43.220;0.064;2023-12-14T04:34:28;98509.06;;;8.36;67.08
83691;BME280;73671;43.220;0.064;2023-12-14T04:36:53;98506.72;;;8.35;67.46
83691;BME280;73671;43.220;0.064;2023-12-14T04:39:23;98522.31;;;8.31;66.32
83691;BME280;73671;43.220;0.064;2023-12-14T04:41:49;98520.75;;;8.29;66.54
83691;BME280;73671;43.220;0.064;2023-12-14T04:44:15;98526.94;;;8.30;66.71
83691;BME280;73671;43.220;0.064;2023-12-14T04:46:40;98523.47;;;8.29;67.24
83691;BME280;73671;43.220;0.064;2023-12-14T04:49:06;98537.00;;;8.33;66.94
83691;BME280;73671;43.220;0.064;2023-12-14T04:51:31;98531.59;;;8.29;66.46
83691;BME280;73671;43.220;0.064;2023-12-14T04:53:57;98533.16;;;8.31;66.72
83691;BME280;73671;43.220;0.064;2023-12-14T04:56:22;98535.88;;;8.31;66.66
83691;BME280;73671;43.220;0.064;2023-12-14T04:58:48;98534.31;;;8.29;66.46
83691;BME280;73671;43.220;0.064;2023-12-14T05:01:13;98540.09;;;8.32;66.95
83691;BME280;73671;43.220;0.064;2023-12-14T05:03:39;98550.97;;;8.32;66.39
83691;BME280;73671;43.220;0.064;2023-12-14T05:06:05;98561.06;;;8.31;66.37
83691;BME280;73671;43.220;0.064;2023-12-14T05:08:31;98568.44;;;8.31;67.13
83691;BME280;73671;43.220;0.064;2023-12-14T05:10:57;98572.66;;;8.32;67.24
83691;BME280;73671;43.220;0.064;2023-12-14T05:13:22;98572.66;;;8.32;66.14
83691;BME280;73671;43.220;0.064;2023-12-14T05:15:47;98566.50;;;8.27;66.38
83691;BME280;73671;43.220;0.064;2023-12-14T05:18:13;98573.47;;;8.28;66.84
83691;BME280;73671;43.220;0.064;2023-12-14T05:20:38;98575.06;;;8.26;65.92
83691;BME280;73671;43.220;0.064;2023-12-14T05:23:04;98589.03;;;8.24;66.20
83691;BME280;73671;43.220;0.064;2023-12-14T05:25:29;98592.13;;;8.23;66.32
83691;BME280;73671;43.220;0.064;2023-12-14T05:27:54;98596.41;;;8.20;66.35
83691;BME280;73671;43.220;0.064;2023-12-14T05:30:20;98602.28;;;8.19;66.75
83691;BME280;73671;43.220;0.064;2023-12-14T05:32:45;98599.56;;;8.19;65.87
83691;BME280;73671;43.220;0.064;2023-12-14T05:35:12;98604.59;;;8.17;66.00
83691;BME280;73671;43.220;0.064;2023-12-14T05:37:40;98598.41;;;8.16;65.97
83691;BME280;73671;43.220;0.064;2023-12-14T05:40:07;98603.84;;;8.16;66.46
83691;BME280;73671;43.220;0.064;2023-12-14T05:42:33;98611.63;;;8.14;66.64
83691;BME280;73671;43.220;0.064;2023-12-14T05:44:59;98613.59;;;8.10;66.45
83691;BME280;73671;43.220;0.064;2023-12-14T05:47:26;98614.75;;;8.09;66.12
83691;BME280;73671;43.220;0.064;2023-12-14T05:49:51;98617.44;;;8.09;66.47
83691;BME280;73671;43.220;0.064;2023-12-14T05:52:17;98625.59;;;8.09;67.01
83691;BME280;73671;43.220;0.064;2023-12-14T05:54:43;98630.25;;;8.08;66.94
83691;BME280;73671;43.220;0.064;2023-12-14T05:57:08;98641.28;;;7.91;66.98
83691;BME280;73671;43.220;0.064;2023-12-14T05:59:33;98644.31;;;7.96;67.25
83691;BME280;73671;43.220;0.064;2023-12-14T06:02:00;98643.50;;;7.99;66.96
83691;BME280;73671;43.220;0.064;2023-12-14T06:04:26;98651.25;;;8.01;67.07
83691;BME280;73671;43.220;0.064;2023-12-14T06:06:52;98647.47;;;7.88;67.85
83691;BME280;73671;43.220;0.064;2023-12-14T06:09:17;98645.47;;;7.47;68.48
83691;BME280;73671;43.220;0.064;2023-12-14T06:11:47;98650.78;;;7.61;68.65
83691;BME280;73671;43.220;0.064;2023-12-14T06:14:13;98661.69;;;7.54;68.82
83691;BME280;73671;43.220;0.064;2023-12-14T06:16:38;98660.41;;;7.69;68.68
83691;BME280;73671;43.220;0.064;2023-12-14T06:19:03;98668.59;;;7.62;68.38
83691;BME280;73671;43.220;0.064;2023-12-14T06:21:29;98664.91;;;7.34;69.56
83691;BME280;73671;43.220;0.064;2023-12-14T06:23:56;98678.31;;;7.56;69.43
83691;BME280;73671;43.220;0.064;2023-12-14T06:26:22;98675.22;;;7.54;69.00
83691;BME280;73671;43.220;0.064;2023-12-14T06:28:47;98686.44;;;7.59;68.68
83691;BME280;73671;43.220;0.064;2023-12-14T06:31:13;98686.34;;;7.74;68.88
83691;BME280;73671;43.220;0.064;2023-12-14T06:33:41;98694.00;;;7.82;68.28
83691;BME280;73671;43.220;0.064;2023-12-14T06:36:08;98709.44;;;7.89;67.88
83691;BME280;73671;43.220;0.064;2023-12-14T06:38:33;98717.91;;;7.95;68.68
83691;BME280;73671;43.220;0.064;2023-12-14T06:40:59;98729.13;;;7.97;68.46
83691;BME280;73671;43.220;0.064;2023-12-14T06:43:24;98730.03;;;7.79;68.60
83691;BME280;73671;43.220;0.064;2023-12-14T06:45:49;98733.47;;;7.91;67.74
83691;BME280;73671;43.220;0.064;2023-12-14T06:48:15;98729.13;;;7.97;67.96
83691;BME280;73671;43.220;0.064;2023-12-14T06:50:40;98732.66;;;7.94;67.94
83691;BME280;73671;43.220;0.064;2023-12-14T06:53:06;98731.84;;;7.97;67.92
83691;BME280;73671;43.220;0.064;2023-12-14T06:55:31;98731.84;;;7.97;67.85
83691;BME280;73671;43.220;0.064;2023-12-14T06:57:56;98736.13;;;7.98;68.24
83691;BME280;73671;43.220;0.064;2023-12-14T07:00:22;98743.44;;;8.01;67.74
83691;BME280;73671;43.220;0.064;2023-12-14T07:02:47;98751.19;;;7.99;68.27
83691;BME280;73671;43.220;0.064;2023-12-14T07:05:13;98755.81;;;8.02;67.54
83691;BME280;73671;43.220;0.064;2023-12-14T07:07:38;98762.81;;;8.03;67.57
83691;BME280;73671;43.220;0.064;2023-12-14T07:10:04;98769.75;;;8.04;67.99
83691;BME280;73671;43.220;0.064;2023-12-14T07:12:29;98768.22;;;8.03;68.18
83691;BME280;73671;43.220;0.064;2023-12-14T07:14:55;98784.50;;;8.03;67.45
83691;BME280;73671;43.220;0.064;2023-12-14T07:17:20;98790.31;;;8.05;67.68
83691;BME280;73671;43.220;0.064;2023-12-14T07:19:46;98792.63;;;8.03;67.13
83691;BME280;73671;43.220;0.064;2023-12-14T07:22:11;98794.97;;;8.01;67.90
83691;BME280;73671;43.220;0.064;2023-12-14T07:24:36;98804.28;;;8.00;67.11
83691;BME280;73671;43.220;0.064;2023-12-14T07:27:02;98805.44;;;7.99;66.99
83691;BME280;73671;43.220;0.064;2023-12-14T07:29:28;98811.63;;;8.03;67.18
83691;BME280;73671;43.220;0.064;2023-12-14T07:31:53;98816.66;;;8.04;67.67
83691;BME280;73671;43.220;0.064;2023-12-14T07:34:18;98813.53;;;8.06;67.53
83691;BME280;73671;43.220;0.064;2023-12-14T07:36:45;98824.75;;;8.08;67.60
83691;BME280;73671;43.220;0.064;2023-12-14T07:39:11;98824.75;;;8.08;67.14
83691;BME280;73671;43.220;0.064;2023-12-14T07:41:37;98828.59;;;8.11;67.24
83691;BME280;73671;43.220;0.064;2023-12-14T07:44:03;98824.75;;;8.08;66.31
83691;BME280;73671;43.220;0.064;2023-12-14T07:46:29;98822.03;;;8.08;66.75
83691;BME280;73671;43.220;0.064;2023-12-14T07:48:55;98818.56;;;8.07;66.37
83691;BME280;73671;43.220;0.064;2023-12-14T07:51:20;98824.75;;;8.08;66.55
83691;BME280;73671;43.220;0.064;2023-12-14T07:53:46;98818.94;;;8.06;66.11
83691;BME280;73671;43.220;0.064;2023-12-14T07:56:12;98831.72;;;8.09;65.92
83691;BME280;73671;43.220;0.064;2023-12-14T07:58:37;98836.38;;;8.08;66.59
83691;BME280;73671;43.220;0.064;2023-12-14T08:01:03;98834.78;;;8.11;66.87
83691;BME280;73671;43.220;0.064;2023-12-14T08:03:28;98840.22;;;8.11;66.64
83691;BME280;73671;43.220;0.064;2023-12-14T08:05:54;98845.66;;;8.11;66.68
83691;BME280;73671;43.220;0.064;2023-12-14T08:08:19;98845.31;;;8.02;65.82
83691;BME280;73671;43.220;0.064;2023-12-14T08:10:45;98852.69;;;8.05;65.87
83691;BME280;73671;43.220;0.064;2023-12-14T08:13:10;98860.53;;;7.78;65.97
83691;BME280;73671;43.220;0.064;2023-12-14T08:15:36;98862.41;;;7.92;65.96
83691;BME280;73671;43.220;0.064;2023-12-14T08:18:01;98873.59;;;8.01;65.95
83691;BME280;73671;43.220;0.064;2023-12-14T08:20:27;98866.59;;;8.11;66.26
83691;BME280;73671;43.220;0.064;2023-12-14T08:22:52;98867.31;;;8.18;66.35
83691;BME280;73671;43.220;0.064;2023-12-14T08:25:18;98881.25;;;8.20;65.83
83691;BME280;73671;43.220;0.064;2023-12-14T08:27:43;98879.72;;;8.19;65.35
83691;BME280;73671;43.220;0.064;2023-12-14T08:30:10;98892.09;;;8.20;65.61
83691;BME280;73671;43.220;0.064;2023-12-14T08:32:36;98895.56;;;8.24;65.55
83691;BME280;73671;43.220;0.064;2023-12-14T08:35:01;98897.91;;;8.26;65.48
83691;BME280;73671;43.220;0.064;2023-12-14T08:37:27;98905.63;;;8.31;65.69
83691;BME280;73671;43.220;0.064;2023-12-14T08:39:52;98906.75;;;8.34;65.12
83691;BME280;73671;43.220;0.064;2023-12-14T08:42:17;98909.84;;;8.36;65.41
83691;BME280;73671;43.220;0.064;2023-12-14T08:44:43;98918.38;;;8.38;65.21
83691;BME280;73671;43.220;0.064;2023-12-14T08:47:08;98914.84;;;8.44;65.10
83691;BME280;73671;43.220;0.064;2023-12-14T08:49:35;98910.94;;;8.49;64.91
83691;BME280;73671;43.220;0.064;2023-12-14T08:52:00;98925.66;;;8.55;65.28
83691;BME280;73671;43.220;0.064;2023-12-14T08:54:25;98931.50;;;8.50;65.08
83691;BME280;73671;43.220;0.064;2023-12-14T08:56:51;98931.53;;;8.43;65.05
83691;BME280;73671;43.220;0.064;2023-12-14T08:59:17;98940.06;;;8.45;65.03
83691;BME280;73671;43.220;0.064;2023-12-14T09:01:45;98933.88;;;8.41;65.42
83691;BME280;73671;43.220;0.064;2023-12-14T09:04:10;98943.94;;;8.44;65.08
83691;BME280;73671;43.220;0.064;2023-12-14T09:06:36;98941.41;;;8.78;64.78
83691;BME280;73671;43.220;0.064;2023-12-14T09:09:01;98946.16;;;9.53;63.88
83691;BME280;73671;43.220;0.064;2023-12-14T09:11:27;98946.66;;;9.79;63.00
83691;BME280;73671;43.220;0.064;2023-12-14T09:13:53;98953.69;;;10.42;61.88
83691;BME280;73671;43.220;0.064;2023-12-14T09:16:18;98959.22;;;11.12;60.06
83691;BME280;73671;43.220;0.064;2023-12-14T09:18:44;98960.75;;;11.80;58.54
83691;BME280;73671;43.220;0.064;2023-12-14T09:21:09;98967.00;;;12.21;57.02
83691;BME280;73671;43.220;0.064;2023-12-14T09:23:34;98968.38;;;12.29;56.34
83691;BME280;73671;43.220;0.064;2023-12-14T09:26:00;98978.00;;;12.17;56.05
83691;BME280;73671;43.220;0.064;2023-12-14T09:28:25;98975.63;;;11.99;56.21
83691;BME280;73671;43.220;0.064;2023-12-14T09:30:51;98984.00;;;11.88;56.47
83691;BME280;73671;43.220;0.064;2023-12-14T09:33:17;98982.41;;;11.91;56.47
83691;BME280;73671;43.220;0.064;2023-12-14T09:35:43;98982.50;;;11.84;56.74
83691;BME280;73671;43.220;0.064;2023-12-14T09:38:09;98979.63;;;11.71;56.87
83691;BME280;73671;43.220;0.064;2023-12-14T09:40:34;98988.88;;;11.77;55.91
83691;BME280;73671;43.220;0.064;2023-12-14T09:43:00;98996.50;;;11.86;55.00
83691;BME280;73671;43.220;0.064;2023-12-14T09:45:29;98998.31;;;11.73;53.71
83691;BME280;73671;43.220;0.064;2023-12-14T09:47:57;99007.31;;;11.70;54.29
83691;BME280;73671;43.220;0.064;2023-12-14T09:50:23;99014.88;;;11.62;55.04
83691;BME280;73671;43.220;0.064;2023-12-14T09:52:48;99021.00;;;11.46;54.36
83691;BME280;73671;43.220;0.064;2023-12-14T09:55:15;99020.88;;;11.30;53.99
83691;BME280;73671;43.220;0.064;2023-12-14T09:57:40;99029.75;;;11.34;54.66
83691;BME280;73671;43.220;0.064;2023-12-14T10:00:06;99038.84;;;11.27;54.49
83691;BME280;73671;43.220;0.064;2023-12-14T10:02:36;99031.91;;;11.22;54.54
83691;BME280;73671;43.220;0.064;2023-12-14T10:05:02;99040.53;;;11.17;54.77
83691;BME280;73671;43.220;0.064;2023-12-14T10:07:27;99037.56;;;11.08;54.65
83691;BME280;73671;43.220;0.064;2023-12-14T10:09:53;99039.97;;;11.02;54.94
83691;BME280;73671;43.220;0.064;2023-12-14T10:12:18;99029.94;;;10.96;54.51
83691;BME280;73671;43.220;0.064;2023-12-14T10:14:47;99043.94;;;10.98;54.36
83691;BME280;73671;43.220;0.064;2023-12-14T10:17:22;99045.59;;;10.92;54.16
83691;BME280;73671;43.220;0.064;2023-12-14T10:19:53;99048.75;;;10.87;53.22
83691;BME280;73671;43.220;0.064;2023-12-14T10:22:19;99054.84;;;10.98;53.07
83691;BME280;73671;43.220;0.064;2023-12-14T10:24:45;99050.50;;;11.28;52.84
83691;BME280;73671;43.220;0.064;2023-12-14T10:27:11;99064.97;;;11.48;52.26
83691;BME280;73671;43.220;0.064;2023-12-14T10:29:37;99062.31;;;11.68;52.36
83691;BME280;73671;43.220;0.064;2023-12-14T10:32:05;99063.31;;;11.78;51.83
83691;BME280;73671;43.220;0.064;2023-12-14T10:34:32;99073.47;;;11.77;51.88
83691;BME280;73671;43.220;0.064;2023-12-14T10:36:59;99068.38;;;11.79;51.72
83691;BME280;73671;43.220;0.064;2023-12-14T10:39:25;99074.59;;;11.80;51.53
83691;BME280;73671;43.220;0.064;2023-12-14T10:41:52;99070.59;;;11.84;51.37
83691;BME280;73671;43.220;0.064;2023-12-14T10:44:21;99075.34;;;12.24;51.28
83691;BME280;73671;43.220;0.064;2023-12-14T10:46:53;99075.34;;;12.64;49.83
83691;BME280;73671;43.220;0.064;2023-12-14T10:49:22;99084.75;;;12.99;49.30
83691;BME280;73671;43.220;0.064;2023-12-14T10:51:48;99090.06;;;13.06;48.77
83691;BME280;73671;43.220;0.064;2023-12-14T10:54:15;99093.28;;;13.70;47.85
83691;BME280;73671;43.220;0.064;2023-12-14T10:56:41;99093.28;;;13.70;47.85
83691;BME280;73671;43.220;0.064;2023-12-14T10:59:07;99093.28;;;13.70;47.85
83691;BME280;73671;43.220;0.064;2023-12-14T11:01:33;99102.63;;;15.15;44.89
83691;BME280;73671;43.220;0.064;2023-12-14T11:04:00;99097.44;;;14.79;43.93
83691;BME280;73671;43.220;0.064;2023-12-14T11:09:02;99104.56;;;13.89;44.91
83691;BME280;73671;43.220;0.064;2023-12-14T11:11:40;99104.56;;;13.89;44.91
83691;BME280;73671;43.220;0.064;2023-12-14T11:14:08;99104.56;;;13.89;44.91
83691;BME280;73671;43.220;0.064;2023-12-14T11:16:36;91723.47;;;13.68;100.00
83691;BME280;73671;43.220;0.064;2023-12-14T11:21:46;99080.44;;;14.71;43.25
83691;BME280;73671;43.220;0.064;2023-12-14T11:24:12;99091.75;;;16.32;42.56
83691;BME280;73671;43.220;0.064;2023-12-14T11:26:38;99091.75;;;16.32;42.56
83691;BME280;73671;43.220;0.064;2023-12-14T11:29:06;99100.22;;;17.82;40.31
83691;BME280;73671;43.220;0.064;2023-12-14T11:31:31;99100.22;;;17.82;40.31
83691;BME280;73671;43.220;0.064;2023-12-14T11:33:58;99100.22;;;17.82;40.31
83691;BME280;73671;43.220;0.064;2023-12-14T11:36:26;99100.22;;;17.82;40.31
83691;BME280;73671;43.220;0.064;2023-12-14T11:38:51;99100.22;;;17.82;40.31
83691;BME280;73671;43.220;0.064;2023-12-14T11:41:22;99100.22;;;17.82;40.31
83691;BME280;73671;43.220;0.064;2023-12-14T11:43:50;99100.22;;;17.82;40.31
83691;BME280;73671;43.220;0.064;2023-12-14T11:46:16;99102.06;;;18.58;35.09
83691;BME280;73671;43.220;0.064;2023-12-14T11:48:44;99102.06;;;18.58;35.09
83691;BME280;73671;43.220;0.064;2023-12-14T11:51:10;99102.06;;;18.58;35.09
83691;BME280;73671;43.220;0.064;2023-12-14T11:53:36;99102.06;;;18.58;35.09
83691;BME280;73671;43.220;0.064;2023-12-14T11:56:05;99102.06;;;18.58;35.09
83691;BME280;73671;43.220;0.064;2023-12-14T11:58:34;99102.06;;;18.58;35.09
83691;BME280;73671;43.220;0.064;2023-12-14T12:01:15;99111.31;;;16.79;37.31
83691;BME280;73671;43.220;0.064;2023-12-14T12:03:42;99111.31;;;16.79;37.31
83691;BME280;73671;43.220;0.064;2023-12-14T12:06:19;99120.06;;;15.60;39.98
83691;BME280;73671;43.220;0.064;2023-12-14T12:08:45;99120.06;;;15.60;39.98
83691;BME280;73671;43.220;0.064;2023-12-14T12:11:10;99120.06;;;15.60;39.98
83691;BME280;73671;43.220;0.064;2023-12-14T12:13:35;99120.06;;;15.60;39.98
83691;BME280;73671;43.220;0.064;2023-12-14T12:16:01;99126.97;;;16.47;39.79
83691;BME280;73671;43.220;0.064;2023-12-14T12:18:26;99126.97;;;16.47;39.79
83691;BME280;73671;43.220;0.064;2023-12-14T12:20:52;99120.59;;;16.15;39.45
83691;BME280;73671;43.220;0.064;2023-12-14T12:23:18;99120.59;;;16.15;39.45
83691;BME280;73671;43.220;0.064;2023-12-14T12:25:44;99125.22;;;17.06;39.05
83691;BME280;73671;43.220;0.064;2023-12-14T12:28:09;99116.28;;;17.83;36.90
83691;BME280;73671;43.220;0.064;2023-12-14T12:30:35;99116.28;;;17.83;36.90
83691;BME280;73671;43.220;0.064;2023-12-14T12:33:00;99116.28;;;17.83;36.90
83691;BME280;73671;43.220;0.064;2023-12-14T12:35:26;99116.28;;;17.83;36.90
83691;BME280;73671;43.220;0.064;2023-12-14T12:37:52;99116.28;;;17.83;36.90
83691;BME280;73671;43.220;0.064;2023-12-14T12:40:21;99111.41;;;17.87;37.22
83691;BME280;73671;43.220;0.064;2023-12-14T12:42:47;99111.41;;;17.87;37.22
83691;BME280;73671;43.220;0.064;2023-12-14T12:45:16;99111.41;;;17.87;37.22
83691;BME280;73671;43.220;0.064;2023-12-14T12:47:47;99120.22;;;17.64;36.54
83691;BME280;73671;43.220;0.064;2023-12-14T12:50:13;99121.81;;;17.33;37.79
83691;BME280;73671;43.220;0.064;2023-12-14T12:52:39;99121.81;;;17.33;37.79
83691;BME280;73671;43.220;0.064;2023-12-14T12:55:08;71229.28;;;-146.39;38.35
83691;BME280;73671;43.220;0.064;2023-12-14T12:57:35;99128.69;;;16.75;38.35
83691;BME280;73671;43.220;0.064;2023-12-14T13:00:00;99121.56;;;15.86;39.63
83691;BME280;73671;43.220;0.064;2023-12-14T13:02:26;99121.56;;;15.86;39.63
83691;BME280;73671;43.220;0.064;2023-12-14T13:04:51;99121.56;;;15.86;39.63
83691;BME280;73671;43.220;0.064;2023-12-14T13:07:17;99121.56;;;15.86;39.63